createdAt,value
2023-01-17T00:02:10.677Z,94.85
2023-01-17T00:07:15.804Z,96.07
2023-01-17T00:12:10.727Z,95.04
2023-01-17T00:17:01.872Z,94.90
2023-01-17T00:22:04.803Z,94.33
2023-01-17T00:27:11.153Z,93.90
2023-01-17T00:31:58.720Z,93.58
2023-01-17T00:36:47.404Z,92.96
2023-01-17T00:41:38.161Z,92.37
2023-01-17T00:46:43.312Z,91.68
2023-01-17T00:51:47.038Z,91.70
2023-01-17T00:56:49.405Z,91.70
2023-01-17T01:01:56.223Z,91.50
2023-01-17T01:07:00.931Z,91.08
2023-01-17T01:12:06.456Z,91.59
2023-01-17T01:17:13.523Z,92.23
2023-01-17T01:22:16.187Z,91.50
2023-01-17T01:27:18.806Z,90.77
2023-01-17T01:32:24.349Z,90.83
2023-01-17T01:37:17.752Z,91.00
2023-01-17T01:42:14.015Z,91.76
2023-01-17T01:47:05.716Z,91.33
2023-01-17T01:52:01.975Z,91.68
2023-01-17T01:56:53.779Z,91.59
2023-01-17T02:01:45.169Z,92.02
2023-01-17T02:06:37.079Z,91.42
2023-01-17T02:11:29.919Z,92.05
2023-01-17T02:16:28.992Z,91.30
2023-01-17T02:21:25.102Z,90.60
2023-01-17T02:26:49.983Z,90.86
2023-01-17T02:31:50.787Z,100.00
2023-01-17T02:36:49.154Z,100.00
2023-01-17T02:41:44.674Z,100.00
2023-01-17T02:46:47.109Z,100.00
2023-01-17T02:52:06.238Z,97.54
2023-01-17T02:57:12.464Z,96.68
2023-01-17T03:02:19.227Z,95.85
2023-01-17T03:07:19.858Z,95.10
2023-01-17T03:12:13.537Z,94.38
2023-01-17T03:17:06.663Z,94.02
2023-01-17T03:21:59.638Z,92.74
2023-01-17T03:26:52.446Z,92.79
2023-01-17T03:31:42.941Z,93.33
2023-01-17T03:36:32.568Z,93.50
2023-01-17T03:41:22.897Z,93.26
2023-01-17T03:46:21.830Z,92.83
2023-01-17T03:51:14.807Z,92.29
2023-01-17T03:56:06.094Z,90.96
2023-01-17T04:01:00.077Z,90.60
2023-01-17T04:05:54.539Z,90.90
2023-01-17T04:10:47.241Z,90.51
2023-01-17T04:15:39.116Z,90.77
2023-01-17T04:20:36.239Z,90.62
2023-01-17T04:25:30.711Z,90.44
2023-01-17T04:30:20.943Z,90.26
2023-01-17T04:35:12.977Z,90.25
2023-01-17T04:40:04.447Z,90.22
2023-01-17T04:44:58.232Z,90.10
2023-01-17T04:49:49.517Z,90.31
2023-01-17T04:54:42.197Z,90.67
2023-01-17T04:59:33.830Z,90.77
2023-01-17T05:04:29.770Z,90.94
2023-01-17T05:09:21.363Z,91.25
2023-01-17T05:14:13.576Z,91.25
2023-01-17T05:19:05.097Z,91.13
2023-01-17T05:24:02.307Z,90.95
2023-01-17T05:28:52.085Z,90.48
2023-01-17T05:33:41.899Z,90.20
2023-01-17T05:38:32.330Z,90.07
2023-01-17T05:43:30.315Z,90.14
2023-01-17T05:48:23.523Z,89.75
2023-01-17T05:53:25.143Z,89.86
2023-01-17T05:58:21.346Z,89.55
2023-01-17T06:03:25.616Z,89.65
2023-01-17T06:08:20.329Z,89.50
2023-01-17T06:13:12.487Z,89.23
2023-01-17T06:18:07.273Z,88.96
2023-01-17T06:23:16.061Z,89.35
2023-01-17T06:28:10.201Z,89.37
2023-01-17T06:33:05.800Z,89.16
2023-01-17T06:38:07.751Z,89.23
2023-01-17T06:43:03.535Z,89.02
2023-01-17T06:47:53.614Z,88.64
2023-01-17T06:52:43.940Z,88.53
2023-01-17T06:57:41.361Z,88.40
2023-01-17T07:02:34.959Z,88.25
2023-01-17T07:07:33.643Z,88.29
2023-01-17T07:12:26.412Z,88.26
2023-01-17T07:17:30.391Z,87.92
2023-01-17T07:22:21.715Z,88.18
2023-01-17T07:27:12.784Z,88.08
2023-01-17T07:32:03.949Z,88.34
2023-01-17T07:36:57.877Z,88.43
2023-01-17T07:41:49.051Z,88.74
2023-01-17T07:46:39.248Z,88.65
2023-01-17T07:51:43.424Z,89.18
2023-01-17T07:56:37.299Z,88.92
2023-01-17T08:01:30.310Z,88.84
2023-01-17T08:06:24.092Z,88.57
2023-01-17T08:11:17.689Z,88.52
2023-01-17T08:16:13.661Z,89.10
2023-01-17T08:21:04.467Z,88.92
2023-01-17T08:25:54.722Z,88.98
2023-01-17T08:30:44.701Z,89.31
2023-01-17T08:35:37.659Z,89.41
2023-01-17T08:40:30.195Z,88.88
2023-01-17T08:45:21.260Z,89.04
2023-01-17T08:50:15.764Z,88.80
2023-01-17T08:55:12.484Z,89.23
2023-01-17T09:00:07.658Z,91.40
2023-01-17T09:04:58.750Z,92.29
2023-01-17T09:09:52.986Z,92.36
2023-01-17T09:14:48.584Z,92.92
2023-01-17T09:19:42.560Z,91.24
2023-01-17T09:24:32.829Z,89.97
2023-01-17T09:29:23.213Z,89.61
2023-01-17T09:34:19.088Z,89.61
2023-01-17T09:39:11.148Z,88.86
2023-01-17T09:44:09.988Z,88.97
2023-01-17T09:49:09.591Z,89.28
2023-01-17T09:54:04.443Z,89.55
2023-01-17T09:59:08.692Z,89.34
2023-01-17T10:04:15.969Z,89.88
2023-01-17T10:09:23.564Z,92.83
2023-01-17T10:14:37.215Z,92.16
2023-01-17T10:19:44.794Z,93.19
2023-01-17T10:25:01.466Z,93.84
2023-01-17T10:29:54.712Z,90.75
2023-01-17T10:34:48.691Z,88.68
2023-01-17T10:39:43.755Z,86.58
2023-01-17T10:44:42.639Z,86.73
2023-01-17T10:49:33.435Z,86.42
2023-01-17T10:54:33.573Z,85.95
2023-01-17T10:59:37.535Z,86.20
2023-01-17T11:04:35.718Z,86.64
2023-01-17T11:09:39.901Z,86.74
2023-01-17T11:14:36.001Z,88.74
2023-01-17T11:19:29.437Z,90.79
2023-01-17T11:24:24.805Z,90.63
2023-01-17T11:29:22.159Z,89.40
2023-01-17T11:34:21.613Z,86.54
2023-01-17T11:39:27.882Z,86.45
2023-01-17T11:44:26.768Z,85.75
2023-01-17T11:49:29.119Z,85.10
2023-01-17T11:54:30.575Z,84.84
2023-01-17T11:59:28.599Z,84.54
2023-01-17T12:04:36.675Z,74.99
2023-01-17T12:09:31.610Z,77.40
2023-01-17T12:14:27.374Z,81.63
2023-01-17T12:19:43.969Z,68.83
2023-01-17T12:24:49.185Z,73.03
2023-01-17T12:29:49.409Z,72.20
2023-01-17T12:34:43.364Z,75.67
2023-01-17T12:39:36.620Z,71.90
2023-01-17T12:44:38.691Z,68.15
2023-01-17T12:49:37.658Z,71.34
2023-01-17T12:54:32.847Z,81.67
2023-01-17T12:59:29.139Z,75.68
2023-01-17T13:04:27.783Z,73.66
2023-01-17T13:09:23.332Z,77.59
2023-01-17T13:14:14.527Z,68.23
2023-01-17T13:19:10.620Z,69.03
2023-01-17T13:24:15.966Z,74.25
2023-01-17T13:29:10.000Z,74.59
2023-01-17T13:34:18.832Z,73.64
2023-01-17T13:39:29.972Z,75.27
2023-01-17T13:44:32.750Z,72.54
2023-01-17T13:49:37.066Z,74.18
2023-01-17T13:54:36.283Z,71.21
2023-01-17T13:59:32.799Z,76.86
2023-01-17T14:04:24.815Z,76.18
2023-01-17T14:09:19.258Z,73.03
2023-01-17T14:14:27.618Z,79.10
2023-01-17T14:19:33.431Z,69.09
2023-01-17T14:24:25.085Z,79.84
2023-01-17T14:29:30.207Z,72.24
2023-01-17T14:34:24.208Z,75.28
2023-01-17T14:39:27.186Z,77.28
2023-01-17T14:44:23.050Z,79.11
2023-01-17T14:49:24.920Z,75.75
2023-01-17T14:54:25.056Z,76.97
2023-01-17T14:59:21.620Z,76.93
2023-01-17T15:04:24.004Z,76.02
2023-01-17T15:09:16.624Z,76.10
2023-01-17T15:14:12.227Z,78.17
2023-01-17T15:19:14.027Z,78.53
2023-01-17T15:24:07.377Z,79.18
2023-01-17T15:29:05.752Z,75.39
2023-01-17T15:33:58.387Z,76.32
2023-01-17T15:38:55.555Z,76.62
2023-01-17T15:43:47.447Z,76.64
2023-01-17T15:48:42.033Z,78.76
2023-01-17T15:53:37.377Z,77.87
2023-01-17T15:58:45.882Z,79.58
2023-01-17T16:03:39.366Z,81.35
2023-01-17T16:08:31.519Z,80.93
2023-01-17T16:13:27.872Z,81.24
2023-01-17T16:18:21.885Z,81.98
2023-01-17T16:23:13.734Z,78.93
2023-01-17T16:28:04.659Z,79.13
2023-01-17T16:32:57.370Z,78.53
2023-01-17T16:38:01.408Z,81.07
2023-01-17T16:42:55.873Z,81.28
2023-01-17T16:47:47.922Z,81.11
2023-01-17T16:52:38.980Z,78.81
2023-01-17T16:57:35.029Z,78.95
2023-01-17T17:02:30.133Z,78.94
2023-01-17T17:07:20.122Z,79.46
2023-01-17T17:12:10.470Z,79.70
2023-01-17T17:17:03.616Z,81.57
2023-01-17T17:22:01.084Z,83.76
2023-01-17T17:27:00.726Z,82.12
2023-01-17T17:31:53.043Z,83.73
2023-01-17T17:36:54.912Z,85.75
2023-01-17T17:41:46.366Z,85.32
2023-01-17T17:46:40.572Z,86.49
2023-01-17T17:51:32.804Z,86.64
2023-01-17T17:56:26.216Z,86.41
2023-01-17T18:01:16.722Z,86.88
2023-01-17T18:06:11.441Z,87.08
2023-01-17T18:11:07.072Z,84.45
2023-01-17T18:16:10.142Z,86.13
2023-01-17T18:21:11.769Z,87.38
2023-01-17T18:26:02.754Z,87.22
2023-01-17T18:30:53.245Z,86.79
2023-01-17T18:35:55.897Z,87.35
2023-01-17T18:40:48.012Z,84.06
2023-01-17T18:45:38.948Z,83.45
2023-01-17T18:50:33.736Z,83.41
2023-01-17T18:55:32.801Z,86.10
2023-01-17T19:00:27.344Z,86.96
2023-01-17T19:05:22.097Z,86.98
2023-01-17T19:10:14.288Z,87.08
2023-01-17T19:15:10.329Z,86.25
2023-01-17T19:20:00.661Z,86.88
2023-01-17T19:24:53.204Z,87.25
2023-01-17T19:29:43.134Z,87.13
2023-01-17T19:34:36.787Z,87.17
2023-01-17T19:39:30.798Z,87.02
2023-01-17T19:44:21.814Z,85.13
2023-01-17T19:49:13.045Z,84.42
2023-01-17T19:54:08.679Z,86.70
2023-01-17T19:59:01.819Z,87.16
2023-01-17T20:03:57.630Z,87.47
2023-01-17T20:08:49.867Z,86.64
2023-01-17T20:13:45.771Z,87.38
2023-01-17T20:18:38.869Z,87.08
2023-01-17T20:23:28.735Z,87.27
2023-01-17T20:28:19.062Z,87.18
2023-01-17T20:33:16.538Z,87.61
2023-01-17T20:38:11.102Z,87.77
2023-01-17T20:43:02.521Z,85.90
2023-01-17T20:47:54.724Z,84.94
2023-01-17T20:52:49.143Z,87.51
2023-01-17T20:57:42.307Z,87.79
2023-01-17T21:02:33.426Z,87.86
2023-01-17T21:07:27.478Z,87.79
2023-01-17T21:12:23.133Z,87.51
2023-01-17T21:17:16.793Z,87.88
2023-01-17T21:22:07.716Z,87.72
2023-01-17T21:26:57.539Z,87.34
2023-01-17T21:31:51.601Z,85.70
2023-01-17T21:36:46.647Z,84.70
2023-01-17T21:41:44.050Z,84.21
2023-01-17T21:46:35.674Z,84.10
2023-01-17T21:51:50.075Z,84.21
2023-01-17T21:56:52.218Z,84.45
2023-01-17T22:01:42.786Z,84.14
2023-01-17T22:06:40.963Z,84.53
2023-01-17T22:11:34.240Z,84.46
2023-01-17T22:16:27.803Z,84.39
2023-01-17T22:21:21.872Z,84.50
2023-01-17T22:26:15.595Z,84.63
2023-01-17T22:31:15.444Z,84.48
2023-01-17T22:36:07.167Z,84.37
2023-01-17T22:41:07.067Z,84.42
2023-01-17T22:46:05.024Z,84.38
2023-01-17T22:51:02.426Z,87.23
2023-01-17T22:56:02.384Z,87.15
2023-01-17T23:00:53.563Z,87.87
2023-01-17T23:05:47.643Z,88.08
2023-01-17T23:10:51.087Z,88.43
2023-01-17T23:15:54.546Z,88.39
2023-01-17T23:20:50.724Z,88.30
2023-01-17T23:25:42.175Z,88.25
2023-01-17T23:30:37.834Z,86.31
2023-01-17T23:35:31.279Z,85.33
2023-01-17T23:40:25.139Z,85.00
2023-01-17T23:45:16.421Z,84.46
2023-01-17T23:50:08.098Z,84.79
2023-01-17T23:54:58.618Z,84.51
2023-01-17T23:59:52.167Z,84.37
